sensor_id;sensor_type;location;lat;lon;timestamp;pressure;altitude;pressure_sealevel;temperature;humidity
70555;BME280;58104;52.744;15.242;2023-07-13T00:01:54;100467.06;;;25.55;36.13
70555;BME280;58104;52.744;15.242;2023-07-13T00:04:21;100472.38;;;25.45;36.42
70555;BME280;58104;52.744;15.242;2023-07-13T00:06:45;100472.85;;;25.57;36.42
70555;BME280;58104;52.744;15.242;2023-07-13T00:09:10;100471.27;;;25.42;36.60
70555;BME280;58104;52.744;15.242;2023-07-13T00:11:35;100477.62;;;25.44;36.59
70555;BME280;58104;52.744;15.242;2023-07-13T00:14:01;100478.13;;;25.46;36.62
70555;BME280;58104;52.744;15.242;2023-07-13T00:16:26;100485.80;;;25.40;36.81
70555;BME280;58104;52.744;15.242;2023-07-13T00:18:51;100489.14;;;25.40;36.87
70555;BME280;58104;52.744;15.242;2023-07-13T00:21:17;100493.53;;;25.40;36.97
70555;BME280;58104;52.744;15.242;2023-07-13T00:23:43;100497.07;;;25.28;37.19
70555;BME280;58104;52.744;15.242;2023-07-13T00:26:09;100504.91;;;25.31;37.20
70555;BME280;58104;52.744;15.242;2023-07-13T00:28:34;100507.53;;;25.28;37.32
70555;BME280;58104;52.744;15.242;2023-07-13T00:30:58;100505.15;;;25.29;37.35
70555;BME280;58104;52.744;15.242;2023-07-13T00:33:24;100504.42;;;25.39;37.20
70555;BME280;58104;52.744;15.242;2023-07-13T00:36:04;100507.38;;;25.37;37.32
70555;BME280;58104;52.744;15.242;2023-07-13T00:38:15;100505.21;;;25.37;37.33
70555;BME280;58104;52.744;15.242;2023-07-13T00:40:40;100509.19;;;25.29;37.72
70555;BME280;58104;52.744;15.242;2023-07-13T00:43:10;100508.29;;;25.26;37.83
70555;BME280;58104;52.744;15.242;2023-07-13T00:47:57;100495.08;;;25.22;37.91
70555;BME280;58104;52.744;15.242;2023-07-13T00:50:22;100489.84;;;25.16;38.02
70555;BME280;58104;52.744;15.242;2023-07-13T01:00:05;100500.87;;;25.09;38.42
70555;BME280;58104;52.744;15.242;2023-07-13T01:02:28;100506.98;;;25.02;38.81
70555;BME280;58104;52.744;15.242;2023-07-13T01:12:11;100517.81;;;24.91;38.89
70555;BME280;58104;52.744;15.242;2023-07-13T01:14:35;100522.18;;;24.77;39.20
70555;BME280;58104;52.744;15.242;2023-07-13T01:17:01;100524.28;;;24.87;39.26
70555;BME280;58104;52.744;15.242;2023-07-13T01:19:33;100522.04;;;24.92;39.04
70555;BME280;58104;52.744;15.242;2023-07-13T01:21:52;100518.97;;;25.09;38.78
70555;BME280;58104;52.744;15.242;2023-07-13T01:24:17;100515.27;;;25.17;38.54
70555;BME280;58104;52.744;15.242;2023-07-13T01:26:43;100517.70;;;25.19;38.45
70555;BME280;58104;52.744;15.242;2023-07-13T01:31:33;100533.92;;;25.17;38.58
70555;BME280;58104;52.744;15.242;2023-07-13T01:33:59;100527.27;;;25.15;38.61
70555;BME280;58104;52.744;15.242;2023-07-13T01:41:15;100513.57;;;25.07;38.97
70555;BME280;58104;52.744;15.242;2023-07-13T01:43:41;100509.90;;;24.90;39.32
70555;BME280;58104;52.744;15.242;2023-07-13T01:46:06;100512.73;;;24.89;39.44
70555;BME280;58104;52.744;15.242;2023-07-13T01:48:31;100524.50;;;24.90;39.39
70555;BME280;58104;52.744;15.242;2023-07-13T01:53:22;100529.40;;;24.96;39.25
70555;BME280;58104;52.744;15.242;2023-07-13T01:55:47;100527.77;;;25.13;39.05
70555;BME280;58104;52.744;15.242;2023-07-13T01:58:13;100528.77;;;25.00;39.25
70555;BME280;58104;52.744;15.242;2023-07-13T02:00:39;100542.13;;;24.91;39.46
70555;BME280;58104;52.744;15.242;2023-07-13T02:03:14;100543.28;;;24.89;39.61
70555;BME280;58104;52.744;15.242;2023-07-13T02:05:29;100539.63;;;24.82;39.80
70555;BME280;58104;52.744;15.242;2023-07-13T02:07:55;100536.22;;;24.66;40.05
70555;BME280;58104;52.744;15.242;2023-07-13T02:27:18;100538.75;;;25.09;39.21
70555;BME280;58104;52.744;15.242;2023-07-13T02:29:43;100534.13;;;24.90;39.53
70555;BME280;58104;52.744;15.242;2023-07-13T02:32:08;100523.79;;;24.89;39.78
70555;BME280;58104;52.744;15.242;2023-07-13T02:34:48;100531.65;;;24.78;40.07
70555;BME280;58104;52.744;15.242;2023-07-13T02:36:59;100541.75;;;24.73;40.14
70555;BME280;58104;52.744;15.242;2023-07-13T02:39:24;100543.84;;;24.84;39.95
70555;BME280;58104;52.744;15.242;2023-07-13T02:44:15;100540.25;;;24.82;40.01
70555;BME280;58104;52.744;15.242;2023-07-13T02:46:41;100538.27;;;24.79;40.01
70555;BME280;58104;52.744;15.242;2023-07-13T02:51:32;100539.37;;;24.90;39.74
70555;BME280;58104;52.744;15.242;2023-07-13T02:53:57;100534.79;;;24.83;39.71
70555;BME280;58104;52.744;15.242;2023-07-13T02:56:37;100534.34;;;24.96;39.55
70555;BME280;58104;52.744;15.242;2023-07-13T02:58:47;100546.79;;;24.91;39.58
70555;BME280;58104;52.744;15.242;2023-07-13T03:01:13;100552.62;;;24.89;39.66
70555;BME280;58104;52.744;15.242;2023-07-13T03:03:48;100557.67;;;24.91;39.64
70555;BME280;58104;52.744;15.242;2023-07-13T03:06:05;100562.74;;;24.79;39.78
70555;BME280;58104;52.744;15.242;2023-07-13T03:08:29;100561.76;;;24.71;39.84
70555;BME280;58104;52.744;15.242;2023-07-13T03:10:59;100560.82;;;24.77;39.79
70555;BME280;58104;52.744;15.242;2023-07-13T03:13:20;100562.82;;;24.70;39.89
70555;BME280;58104;52.744;15.242;2023-07-13T03:15:48;100563.56;;;24.68;39.84
70555;BME280;58104;52.744;15.242;2023-07-13T03:18:10;100559.56;;;24.67;40.03
70555;BME280;58104;52.744;15.242;2023-07-13T03:20:51;100563.19;;;24.56;40.05
70555;BME280;58104;52.744;15.242;2023-07-13T03:23:01;100566.58;;;24.59;39.99
70555;BME280;58104;52.744;15.242;2023-07-13T03:25:26;100566.77;;;24.72;39.82
70555;BME280;58104;52.744;15.242;2023-07-13T03:30:17;100560.87;;;24.61;39.98
70555;BME280;58104;52.744;15.242;2023-07-13T03:32:43;100559.95;;;24.48;40.20
70555;BME280;58104;52.744;15.242;2023-07-13T03:35:09;100556.56;;;24.48;40.39
70555;BME280;58104;52.744;15.242;2023-07-13T03:37:34;100554.89;;;24.48;40.33
70555;BME280;58104;52.744;15.242;2023-07-13T03:39:59;100554.02;;;24.59;40.14
70555;BME280;58104;52.744;15.242;2023-07-13T03:47:15;100542.08;;;24.71;39.73
70555;BME280;58104;52.744;15.242;2023-07-13T03:49:41;100543.62;;;24.61;40.04
70555;BME280;58104;52.744;15.242;2023-07-13T03:52:06;100548.26;;;24.68;39.77
70555;BME280;58104;52.744;15.242;2023-07-13T03:54:31;100551.19;;;24.54;40.00
70555;BME280;58104;52.744;15.242;2023-07-13T03:59:22;100550.03;;;24.36;40.34
70555;BME280;58104;52.744;15.242;2023-07-13T04:01:48;100551.95;;;24.57;39.99
70555;BME280;58104;52.744;15.242;2023-07-13T04:06:38;100566.47;;;24.51;40.05
70555;BME280;58104;52.744;15.242;2023-07-13T04:09:04;100570.28;;;24.51;40.20
70555;BME280;58104;52.744;15.242;2023-07-13T04:11:31;100573.51;;;24.43;40.26
70555;BME280;58104;52.744;15.242;2023-07-13T04:13:56;100574.67;;;24.54;40.00
70555;BME280;58104;52.744;15.242;2023-07-13T04:18:47;100571.04;;;24.56;40.07
70555;BME280;58104;52.744;15.242;2023-07-13T04:21:11;100569.63;;;24.64;39.73
70555;BME280;58104;52.744;15.242;2023-07-13T04:23:37;100569.36;;;24.76;39.62
70555;BME280;58104;52.744;15.242;2023-07-13T04:26:01;100568.19;;;24.78;39.68
70555;BME280;58104;52.744;15.242;2023-07-13T04:30:53;100570.98;;;24.87;39.52
70555;BME280;58104;52.744;15.242;2023-07-13T04:33:18;100572.42;;;24.89;39.47
70555;BME280;58104;52.744;15.242;2023-07-13T04:35:43;100571.57;;;24.94;39.39
70555;BME280;58104;52.744;15.242;2023-07-13T04:38:08;100572.26;;;24.76;39.72
70555;BME280;58104;52.744;15.242;2023-07-13T04:40:33;100571.74;;;24.78;39.77
70555;BME280;58104;52.744;15.242;2023-07-13T04:42:59;100574.21;;;24.75;39.78
70555;BME280;58104;52.744;15.242;2023-07-13T04:45:24;100577.68;;;24.69;39.87
70555;BME280;58104;52.744;15.242;2023-07-13T04:47:50;100577.31;;;24.63;40.05
70555;BME280;58104;52.744;15.242;2023-07-13T04:52:50;100579.06;;;24.59;40.09
70555;BME280;58104;52.744;15.242;2023-07-13T04:55:07;100587.86;;;24.58;40.12
70555;BME280;58104;52.744;15.242;2023-07-13T04:57:31;100590.27;;;24.68;39.96
70555;BME280;58104;52.744;15.242;2023-07-13T05:02:22;100601.68;;;24.97;39.42
70555;BME280;58104;52.744;15.242;2023-07-13T05:04:47;100600.92;;;24.88;39.56
70555;BME280;58104;52.744;15.242;2023-07-13T05:07:13;100602.66;;;25.19;38.95
70555;BME280;58104;52.744;15.242;2023-07-13T05:14:29;100606.82;;;25.32;38.76
70555;BME280;58104;52.744;15.242;2023-07-13T05:16:54;100603.78;;;25.11;39.02
70555;BME280;58104;52.744;15.242;2023-07-13T05:24:16;100599.61;;;25.46;38.43
70555;BME280;58104;52.744;15.242;2023-07-13T05:26:36;100598.79;;;25.30;38.46
70555;BME280;58104;52.744;15.242;2023-07-13T05:29:01;100604.60;;;25.33;38.53
70555;BME280;58104;52.744;15.242;2023-07-13T05:31:26;100604.76;;;25.50;38.29
70555;BME280;58104;52.744;15.242;2023-07-13T05:33:52;100606.67;;;25.50;38.37
70555;BME280;58104;52.744;15.242;2023-07-13T05:41:13;100615.58;;;25.56;38.73
70555;BME280;58104;52.744;15.242;2023-07-13T05:43:33;100616.72;;;25.45;38.87
70555;BME280;58104;52.744;15.242;2023-07-13T05:45:58;100621.67;;;25.53;38.79
70555;BME280;58104;52.744;15.242;2023-07-13T05:48:24;100627.50;;;25.65;38.69
70555;BME280;58104;52.744;15.242;2023-07-13T05:50:49;100622.53;;;25.61;38.62
70555;BME280;58104;52.744;15.242;2023-07-13T05:53:15;100625.28;;;25.70;38.72
70555;BME280;58104;52.744;15.242;2023-07-13T05:55:41;100632.52;;;25.47;39.03
70555;BME280;58104;52.744;15.242;2023-07-13T05:58:05;100631.00;;;25.59;38.83
70555;BME280;58104;52.744;15.242;2023-07-13T06:00:31;100632.44;;;25.60;38.82
70555;BME280;58104;52.744;15.242;2023-07-13T06:05:21;100637.42;;;25.45;39.32
70555;BME280;58104;52.744;15.242;2023-07-13T06:07:47;100642.24;;;25.37;39.31
70555;BME280;58104;52.744;15.242;2023-07-13T06:10:12;100641.84;;;25.45;39.22
70555;BME280;58104;52.744;15.242;2023-07-13T06:12:37;100644.22;;;25.68;38.78
70555;BME280;58104;52.744;15.242;2023-07-13T06:15:04;100650.62;;;25.75;38.64
70555;BME280;58104;52.744;15.242;2023-07-13T06:17:28;100657.58;;;25.74;38.77
70555;BME280;58104;52.744;15.242;2023-07-13T06:19:53;100649.81;;;25.91;38.33
70555;BME280;58104;52.744;15.242;2023-07-13T06:22:18;100658.23;;;25.73;38.57
70555;BME280;58104;52.744;15.242;2023-07-13T06:24:44;100654.27;;;25.81;38.29
70555;BME280;58104;52.744;15.242;2023-07-13T06:27:10;100652.04;;;25.89;38.28
70555;BME280;58104;52.744;15.242;2023-07-13T06:29:35;100650.13;;;25.87;38.10
70555;BME280;58104;52.744;15.242;2023-07-13T06:32:01;100651.00;;;25.98;37.87
70555;BME280;58104;52.744;15.242;2023-07-13T06:34:26;100652.08;;;25.88;38.02
70555;BME280;58104;52.744;15.242;2023-07-13T06:36:51;100650.59;;;26.04;37.79
70555;BME280;58104;52.744;15.242;2023-07-13T06:39:17;100653.58;;;26.10;37.63
70555;BME280;58104;52.744;15.242;2023-07-13T06:41:42;100659.91;;;26.08;37.52
70555;BME280;58104;52.744;15.242;2023-07-13T06:44:07;100658.53;;;26.22;37.41
70555;BME280;58104;52.744;15.242;2023-07-13T06:46:33;100660.37;;;26.25;37.24
70555;BME280;58104;52.744;15.242;2023-07-13T06:48:58;100657.56;;;26.19;37.24
70555;BME280;58104;52.744;15.242;2023-07-13T06:51:23;100658.21;;;26.14;37.26
70555;BME280;58104;52.744;15.242;2023-07-13T06:53:49;100657.87;;;26.12;37.33
70555;BME280;58104;52.744;15.242;2023-07-13T06:56:14;100657.42;;;26.22;37.14
70555;BME280;58104;52.744;15.242;2023-07-13T06:58:40;100656.33;;;26.25;37.07
70555;BME280;58104;52.744;15.242;2023-07-13T07:01:05;100653.62;;;26.10;37.13
70555;BME280;58104;52.744;15.242;2023-07-13T07:03:30;100654.93;;;26.01;37.20
70555;BME280;58104;52.744;15.242;2023-07-13T07:06:00;100656.02;;;26.31;36.85
70555;BME280;58104;52.744;15.242;2023-07-13T07:08:21;100657.40;;;26.17;36.81
70555;BME280;58104;52.744;15.242;2023-07-13T07:10:46;100657.09;;;26.16;36.87
70555;BME280;58104;52.744;15.242;2023-07-13T07:13:12;100656.64;;;26.21;36.67
70555;BME280;58104;52.744;15.242;2023-07-13T07:15:37;100661.77;;;26.41;36.52
70555;BME280;58104;52.744;15.242;2023-07-13T07:18:03;100658.53;;;26.31;36.44
70555;BME280;58104;52.744;15.242;2023-07-13T07:20:28;100660.09;;;26.46;36.22
70555;BME280;58104;52.744;15.242;2023-07-13T07:22:53;100657.83;;;26.39;36.23
70555;BME280;58104;52.744;15.242;2023-07-13T07:25:19;100659.24;;;26.44;36.08
70555;BME280;58104;52.744;15.242;2023-07-13T07:27:44;100660.16;;;26.31;36.32
70555;BME280;58104;52.744;15.242;2023-07-13T07:30:10;100655.28;;;26.11;36.34
70555;BME280;58104;52.744;15.242;2023-07-13T07:32:35;100652.66;;;26.37;36.00
70555;BME280;58104;52.744;15.242;2023-07-13T07:35:00;100656.47;;;26.44;35.66
70555;BME280;58104;52.744;15.242;2023-07-13T07:37:26;100655.92;;;26.60;35.42
70555;BME280;58104;52.744;15.242;2023-07-13T07:39:51;100654.43;;;26.26;35.79
70555;BME280;58104;52.744;15.242;2023-07-13T07:42:16;100655.86;;;26.44;35.47
70555;BME280;58104;52.744;15.242;2023-07-13T07:44:42;100654.41;;;26.34;35.72
70555;BME280;58104;52.744;15.242;2023-07-13T07:47:08;100655.48;;;26.59;35.17
70555;BME280;58104;52.744;15.242;2023-07-13T07:49:32;100659.49;;;26.70;34.93
70555;BME280;58104;52.744;15.242;2023-07-13T07:51:58;100655.37;;;26.54;35.02
70555;BME280;58104;52.744;15.242;2023-07-13T07:54:23;100654.88;;;26.71;35.04
70555;BME280;58104;52.744;15.242;2023-07-13T07:56:49;100660.13;;;26.29;35.57
70555;BME280;58104;52.744;15.242;2023-07-13T07:59:14;100658.58;;;26.33;35.74
70555;BME280;58104;52.744;15.242;2023-07-13T08:01:39;100660.61;;;26.15;35.88
70555;BME280;58104;52.744;15.242;2023-07-13T08:04:05;100659.98;;;26.00;36.32
70555;BME280;58104;52.744;15.242;2023-07-13T08:06:31;100664.26;;;26.14;36.01
70555;BME280;58104;52.744;15.242;2023-07-13T08:08:55;100668.15;;;26.27;35.67
70555;BME280;58104;52.744;15.242;2023-07-13T08:11:21;100663.30;;;26.33;35.64
70555;BME280;58104;52.744;15.242;2023-07-13T08:13:46;100667.06;;;26.31;35.76
70555;BME280;58104;52.744;15.242;2023-07-13T08:16:12;100670.37;;;26.41;35.71
70555;BME280;58104;52.744;15.242;2023-07-13T08:18:37;100669.42;;;26.44;35.75
70555;BME280;58104;52.744;15.242;2023-07-13T08:21:04;100667.18;;;26.55;35.55
70555;BME280;58104;52.744;15.242;2023-07-13T08:23:28;100670.70;;;26.55;35.42
70555;BME280;58104;52.744;15.242;2023-07-13T08:25:54;100673.95;;;26.59;35.42
70555;BME280;58104;52.744;15.242;2023-07-13T08:28:19;100671.06;;;26.52;35.24
70555;BME280;58104;52.744;15.242;2023-07-13T08:30:44;100672.58;;;26.48;35.59
70555;BME280;58104;52.744;15.242;2023-07-13T08:33:09;100672.81;;;26.65;35.39
70555;BME280;58104;52.744;15.242;2023-07-13T08:35:35;100670.75;;;26.55;35.64
70555;BME280;58104;52.744;15.242;2023-07-13T08:38:00;100667.93;;;26.56;36.18
70555;BME280;58104;52.744;15.242;2023-07-13T08:40:27;100669.85;;;26.63;34.83
70555;BME280;58104;52.744;15.242;2023-07-13T08:42:54;100662.63;;;26.71;35.22
70555;BME280;58104;52.744;15.242;2023-07-13T08:45:21;100664.99;;;26.66;35.65
70555;BME280;58104;52.744;15.242;2023-07-13T08:47:47;100661.14;;;26.79;35.32
70555;BME280;58104;52.744;15.242;2023-07-13T08:50:11;100663.06;;;26.81;35.76
70555;BME280;58104;52.744;15.242;2023-07-13T08:52:36;100667.95;;;26.75;34.98
70555;BME280;58104;52.744;15.242;2023-07-13T08:54:59;100666.16;;;26.87;35.01
70555;BME280;58104;52.744;15.242;2023-07-13T08:57:27;100669.93;;;26.99;35.75
70555;BME280;58104;52.744;15.242;2023-07-13T08:59:48;100670.53;;;26.82;35.32
70555;BME280;58104;52.744;15.242;2023-07-13T09:02:23;100671.61;;;26.95;36.00
70555;BME280;58104;52.744;15.242;2023-07-13T09:04:44;100677.82;;;27.01;36.05
70555;BME280;58104;52.744;15.242;2023-07-13T09:07:11;100676.07;;;26.83;34.12
70555;BME280;58104;52.744;15.242;2023-07-13T09:09:39;100673.15;;;26.73;34.50
70555;BME280;58104;52.744;15.242;2023-07-13T09:12:01;100678.01;;;26.80;35.52
70555;BME280;58104;52.744;15.242;2023-07-13T09:14:31;100671.03;;;26.71;34.19
70555;BME280;58104;52.744;15.242;2023-07-13T09:16:46;100669.02;;;26.86;34.36
70555;BME280;58104;52.744;15.242;2023-07-13T09:19:18;100666.84;;;26.90;34.99
70555;BME280;58104;52.744;15.242;2023-07-13T09:21:40;100668.73;;;26.93;35.27
70555;BME280;58104;52.744;15.242;2023-07-13T09:26:30;100665.63;;;27.02;35.54
70555;BME280;58104;52.744;15.242;2023-07-13T09:28:57;100666.86;;;26.99;35.25
70555;BME280;58104;52.744;15.242;2023-07-13T09:31:24;100668.31;;;26.91;33.85
70555;BME280;58104;52.744;15.242;2023-07-13T09:33:44;100666.24;;;26.95;34.87
70555;BME280;58104;52.744;15.242;2023-07-13T09:36:19;100667.48;;;27.03;35.22
70555;BME280;58104;52.744;15.242;2023-07-13T09:38:34;100668.66;;;27.05;35.17
70555;BME280;58104;52.744;15.242;2023-07-13T09:41:08;100667.39;;;27.10;34.74
70555;BME280;58104;52.744;15.242;2023-07-13T09:43:25;100664.77;;;27.24;34.90
70555;BME280;58104;52.744;15.242;2023-07-13T09:45:50;100662.93;;;27.32;34.80
70555;BME280;58104;52.744;15.242;2023-07-13T09:48:17;100666.36;;;27.08;32.53
70555;BME280;58104;52.744;15.242;2023-07-13T09:50:42;100663.43;;;27.09;33.78
70555;BME280;58104;52.744;15.242;2023-07-13T09:53:12;100665.27;;;27.08;33.41
70555;BME280;58104;52.744;15.242;2023-07-13T09:55:34;100664.59;;;27.11;34.23
70555;BME280;58104;52.744;15.242;2023-07-13T09:57:57;100662.49;;;27.11;33.11
70555;BME280;58104;52.744;15.242;2023-07-13T10:00:26;100664.24;;;27.15;33.81
70555;BME280;58104;52.744;15.242;2023-07-13T10:02:59;100670.31;;;27.10;33.02
70555;BME280;58104;52.744;15.242;2023-07-13T10:05:14;100668.92;;;26.94;33.00
70555;BME280;58104;52.744;15.242;2023-07-13T10:07:41;100672.46;;;26.73;33.25
70555;BME280;58104;52.744;15.242;2023-07-13T10:10:13;100680.76;;;26.56;33.16
70555;BME280;58104;52.744;15.242;2023-07-13T10:12:30;100671.46;;;26.70;33.10
70555;BME280;58104;52.744;15.242;2023-07-13T10:14:57;100672.23;;;26.83;33.04
70555;BME280;58104;52.744;15.242;2023-07-13T10:17:26;100680.03;;;26.86;33.05
70555;BME280;58104;52.744;15.242;2023-07-13T10:19:48;100678.92;;;26.76;33.05
70555;BME280;58104;52.744;15.242;2023-07-13T10:22:19;100679.88;;;26.93;32.70
70555;BME280;58104;52.744;15.242;2023-07-13T10:24:38;100677.70;;;26.80;32.77
70555;BME280;58104;52.744;15.242;2023-07-13T10:27:05;100683.48;;;26.64;33.06
70555;BME280;58104;52.744;15.242;2023-07-13T10:29:28;100686.57;;;26.57;32.47
70555;BME280;58104;52.744;15.242;2023-07-13T10:31:52;100680.68;;;26.70;32.58
70555;BME280;58104;52.744;15.242;2023-07-13T10:34:18;100684.16;;;26.77;32.57
70555;BME280;58104;52.744;15.242;2023-07-13T10:36:45;100686.32;;;26.53;32.56
70555;BME280;58104;52.744;15.242;2023-07-13T10:39:15;100689.47;;;26.64;32.38
70555;BME280;58104;52.744;15.242;2023-07-13T10:41:38;100698.50;;;26.40;32.62
70555;BME280;58104;52.744;15.242;2023-07-13T10:44:00;100697.32;;;26.37;32.63
70555;BME280;58104;52.744;15.242;2023-07-13T10:46:26;100695.64;;;26.26;32.70
70555;BME280;58104;52.744;15.242;2023-07-13T10:48:52;100695.09;;;26.20;32.64
70555;BME280;58104;52.744;15.242;2023-07-13T10:51:18;100697.20;;;26.43;32.73
70555;BME280;58104;52.744;15.242;2023-07-13T10:53:41;100704.79;;;25.94;32.90
70555;BME280;58104;52.744;15.242;2023-07-13T10:58:33;100706.12;;;26.45;32.35
70555;BME280;58104;52.744;15.242;2023-07-13T11:01:00;100700.58;;;26.52;32.23
70555;BME280;58104;52.744;15.242;2023-07-13T11:03:22;100700.11;;;26.71;32.21
70555;BME280;58104;52.744;15.242;2023-07-13T11:05:50;100702.84;;;26.60;32.49
70555;BME280;58104;52.744;15.242;2023-07-13T11:08:19;100703.69;;;26.56;32.37
70555;BME280;58104;52.744;15.242;2023-07-13T11:10:46;100703.06;;;26.70;32.16
70555;BME280;58104;52.744;15.242;2023-07-13T11:13:03;100702.96;;;26.51;32.31
70555;BME280;58104;52.744;15.242;2023-07-13T11:15:42;100699.74;;;26.58;32.54
70555;BME280;58104;52.744;15.242;2023-07-13T11:17:55;100698.19;;;26.68;32.29
70555;BME280;58104;52.744;15.242;2023-07-13T11:20:23;100695.35;;;26.83;32.84
70555;BME280;58104;52.744;15.242;2023-07-13T11:22:47;100692.41;;;26.96;32.60
70555;BME280;58104;52.744;15.242;2023-07-13T11:25:25;100691.33;;;27.02;31.95
70555;BME280;58104;52.744;15.242;2023-07-13T11:27:38;100689.18;;;27.04;32.64
70555;BME280;58104;52.744;15.242;2023-07-13T11:30:19;100691.44;;;27.08;33.08
70555;BME280;58104;52.744;15.242;2023-07-13T11:32:30;100692.99;;;27.24;31.50
70555;BME280;58104;52.744;15.242;2023-07-13T11:34:53;100688.13;;;27.19;32.57
70555;BME280;58104;52.744;15.242;2023-07-13T11:37:19;100696.39;;;27.14;31.28
70555;BME280;58104;52.744;15.242;2023-07-13T11:39:44;100694.46;;;27.16;31.51
70555;BME280;58104;52.744;15.242;2023-07-13T11:42:12;100692.37;;;27.27;32.64
70555;BME280;58104;52.744;15.242;2023-07-13T11:44:34;100692.89;;;27.39;32.60
70555;BME280;58104;52.744;15.242;2023-07-13T11:47:00;100692.40;;;27.50;32.48
70555;BME280;58104;52.744;15.242;2023-07-13T11:49:26;100691.72;;;27.54;32.42
70555;BME280;58104;52.744;15.242;2023-07-13T11:51:51;100688.22;;;27.52;32.53
70555;BME280;58104;52.744;15.242;2023-07-13T11:54:23;100685.56;;;27.48;32.59
70555;BME280;58104;52.744;15.242;2023-07-13T11:56:41;100685.22;;;27.65;32.37
70555;BME280;58104;52.744;15.242;2023-07-13T11:59:07;100681.79;;;27.64;32.51
70555;BME280;58104;52.744;15.242;2023-07-13T12:01:32;100678.36;;;27.68;32.37
70555;BME280;58104;52.744;15.242;2023-07-13T12:03:56;100671.91;;;27.49;32.76
70555;BME280;58104;52.744;15.242;2023-07-13T12:06:26;100666.15;;;27.67;32.62
70555;BME280;58104;52.744;15.242;2023-07-13T12:08:47;100663.75;;;27.74;32.59
70555;BME280;58104;52.744;15.242;2023-07-13T12:11:16;100666.84;;;27.78;32.63
70555;BME280;58104;52.744;15.242;2023-07-13T12:13:38;100667.16;;;27.81;32.56
70555;BME280;58104;52.744;15.242;2023-07-13T12:16:11;100667.23;;;27.90;32.52
70555;BME280;58104;52.744;15.242;2023-07-13T12:18:30;100665.36;;;27.68;32.70
70555;BME280;58104;52.744;15.242;2023-07-13T12:20:57;100665.10;;;27.70;32.66
70555;BME280;58104;52.744;15.242;2023-07-13T12:23:23;100668.88;;;27.75;32.63
70555;BME280;58104;52.744;15.242;2023-07-13T12:25:44;100668.86;;;27.68;32.45
70555;BME280;58104;52.744;15.242;2023-07-13T12:28:20;100666.82;;;27.59;32.64
70555;BME280;58104;52.744;15.242;2023-07-13T12:30:35;100664.16;;;27.65;32.78
70555;BME280;58104;52.744;15.242;2023-07-13T12:33:06;100661.16;;;27.68;32.81
70555;BME280;58104;52.744;15.242;2023-07-13T12:35:28;100658.66;;;27.69;32.82
70555;BME280;58104;52.744;15.242;2023-07-13T12:37:51;100652.27;;;27.71;32.80
70555;BME280;58104;52.744;15.242;2023-07-13T12:40:18;100653.76;;;27.78;32.80
70555;BME280;58104;52.744;15.242;2023-07-13T12:42:42;100649.04;;;27.61;32.96
70555;BME280;58104;52.744;15.242;2023-07-13T12:45:17;100656.81;;;27.50;32.83
70555;BME280;58104;52.744;15.242;2023-07-13T12:47:39;100652.61;;;27.36;30.97
70555;BME280;58104;52.744;15.242;2023-07-13T12:49:59;100646.30;;;27.13;29.85
70555;BME280;58104;52.744;15.242;2023-07-13T12:52:29;100641.07;;;27.09;30.71
70555;BME280;58104;52.744;15.242;2023-07-13T12:54:53;100640.17;;;27.15;30.50
70555;BME280;58104;52.744;15.242;2023-07-13T12:57:17;100647.42;;;27.22;31.29
70555;BME280;58104;52.744;15.242;2023-07-13T12:59:39;100642.48;;;27.12;30.29
70555;BME280;58104;52.744;15.242;2023-07-13T13:04:30;100637.63;;;27.02;30.66
70555;BME280;58104;52.744;15.242;2023-07-13T13:07:02;100632.38;;;27.20;31.67
70555;BME280;58104;52.744;15.242;2023-07-13T13:09:21;100632.68;;;27.13;31.28
70555;BME280;58104;52.744;15.242;2023-07-13T13:11:46;100638.15;;;27.31;32.24
70555;BME280;58104;52.744;15.242;2023-07-13T13:14:12;100645.20;;;27.08;30.95
70555;BME280;58104;52.744;15.242;2023-07-13T13:16:45;100638.46;;;27.13;30.61
70555;BME280;58104;52.744;15.242;2023-07-13T13:19:12;100633.47;;;27.00;30.34
70555;BME280;58104;52.744;15.242;2023-07-13T13:21:28;100637.40;;;27.11;31.21
70555;BME280;58104;52.744;15.242;2023-07-13T13:23:53;100635.70;;;26.52;31.13
70555;BME280;58104;52.744;15.242;2023-07-13T13:26:20;100636.81;;;26.69;31.03
70555;BME280;58104;52.744;15.242;2023-07-13T13:28:45;100634.81;;;26.76;31.35
70555;BME280;58104;52.744;15.242;2023-07-13T13:31:10;100631.22;;;26.81;31.34
70555;BME280;58104;52.744;15.242;2023-07-13T13:33:34;100626.14;;;26.97;31.00
70555;BME280;58104;52.744;15.242;2023-07-13T13:36:00;100627.85;;;27.17;31.29
70555;BME280;58104;52.744;15.242;2023-07-13T13:38:27;100629.71;;;27.23;31.71
70555;BME280;58104;52.744;15.242;2023-07-13T13:40:50;100641.21;;;27.01;30.84
70555;BME280;58104;52.744;15.242;2023-07-13T13:43:16;100632.94;;;26.94;31.01
70555;BME280;58104;52.744;15.242;2023-07-13T13:45:41;100637.68;;;27.03;31.18
70555;BME280;58104;52.744;15.242;2023-07-13T13:48:07;100636.47;;;26.74;31.36
70555;BME280;58104;52.744;15.242;2023-07-13T13:50:32;100633.97;;;26.58;31.00
70555;BME280;58104;52.744;15.242;2023-07-13T13:52:57;100630.77;;;26.55;31.31
70555;BME280;58104;52.744;15.242;2023-07-13T13:55:23;100628.07;;;26.79;31.16
70555;BME280;58104;52.744;15.242;2023-07-13T13:57:48;100633.78;;;26.68;31.08
70555;BME280;58104;52.744;15.242;2023-07-13T14:00:14;100629.25;;;26.55;31.16
70555;BME280;58104;52.744;15.242;2023-07-13T14:02:39;100628.61;;;26.52;30.88
70555;BME280;58104;52.744;15.242;2023-07-13T14:05:09;100631.92;;;26.79;31.15